sensor_id;sensor_type;location;lat;lon;timestamp;P1;durP1;ratioP1;P2;durP2;ratioP2
23634;SDS011;11994;51.038;16.974;2023-02-01T00:01:38;3.10;;;0.70;;
23634;SDS011;11994;51.038;16.974;2023-02-01T00:04:04;5.90;;;1.30;;
23634;SDS011;11994;51.038;16.974;2023-02-01T00:06:29;3.80;;;1.00;;
23634;SDS011;11994;51.038;16.974;2023-02-01T00:08:55;4.20;;;0.90;;
23634;SDS011;11994;51.038;16.974;2023-02-01T00:11:21;3.00;;;0.90;;
23634;SDS011;11994;51.038;16.974;2023-02-01T00:13:47;7.50;;;2.10;;
23634;SDS011;11994;51.038;16.974;2023-02-01T00:16:17;6.70;;;2.00;;
23634;SDS011;11994;51.038;16.974;2023-02-01T00:18:48;5.90;;;2.00;;
23634;SDS011;11994;51.038;16.974;2023-02-01T00:21:16;6.10;;;1.80;;
23634;SDS011;11994;51.038;16.974;2023-02-01T00:23:43;6.80;;;2.20;;
23634;SDS011;11994;51.038;16.974;2023-02-01T00:29:17;4.10;;;1.30;;
23634;SDS011;11994;51.038;16.974;2023-02-01T00:31:44;4.40;;;1.50;;
23634;SDS011;11994;51.038;16.974;2023-02-01T00:34:11;4.40;;;1.30;;
23634;SDS011;11994;51.038;16.974;2023-02-01T00:36:38;5.00;;;1.40;;
23634;SDS011;11994;51.038;16.974;2023-02-01T00:39:03;4.30;;;1.10;;
23634;SDS011;11994;51.038;16.974;2023-02-01T00:41:29;3.10;;;1.20;;
23634;SDS011;11994;51.038;16.974;2023-02-01T00:43:54;3.20;;;0.90;;
23634;SDS011;11994;51.038;16.974;2023-02-01T00:46:20;3.10;;;0.90;;
23634;SDS011;11994;51.038;16.974;2023-02-01T00:48:46;3.40;;;1.10;;
23634;SDS011;11994;51.038;16.974;2023-02-01T00:51:13;2.30;;;1.00;;
23634;SDS011;11994;51.038;16.974;2023-02-01T00:53:41;7.40;;;1.20;;
23634;SDS011;11994;51.038;16.974;2023-02-01T00:56:06;5.60;;;1.40;;
23634;SDS011;11994;51.038;16.974;2023-02-01T00:58:33;4.90;;;1.30;;
23634;SDS011;11994;51.038;16.974;2023-02-01T01:01:06;5.10;;;1.70;;
23634;SDS011;11994;51.038;16.974;2023-02-01T01:03:40;7.50;;;1.60;;
23634;SDS011;11994;51.038;16.974;2023-02-01T01:06:09;6.90;;;2.00;;
23634;SDS011;11994;51.038;16.974;2023-02-01T01:08:39;6.30;;;1.90;;
23634;SDS011;11994;51.038;16.974;2023-02-01T01:11:07;3.70;;;1.30;;
23634;SDS011;11994;51.038;16.974;2023-02-01T01:13:37;8.20;;;1.90;;
23634;SDS011;11994;51.038;16.974;2023-02-01T01:16:03;4.00;;;1.50;;
23634;SDS011;11994;51.038;16.974;2023-02-01T01:18:31;5.50;;;1.80;;
23634;SDS011;11994;51.038;16.974;2023-02-01T01:20:57;5.60;;;1.90;;
23634;SDS011;11994;51.038;16.974;2023-02-01T01:23:23;8.80;;;2.50;;
23634;SDS011;11994;51.038;16.974;2023-02-01T01:25:49;8.30;;;2.20;;
23634;SDS011;11994;51.038;16.974;2023-02-01T01:28:14;5.60;;;2.20;;
23634;SDS011;11994;51.038;16.974;2023-02-01T01:30:39;9.80;;;2.30;;
23634;SDS011;11994;51.038;16.974;2023-02-01T01:33:05;8.40;;;2.30;;
23634;SDS011;11994;51.038;16.974;2023-02-01T01:35:31;8.50;;;2.30;;
23634;SDS011;11994;51.038;16.974;2023-02-01T01:37:58;7.80;;;2.10;;
23634;SDS011;11994;51.038;16.974;2023-02-01T01:40:24;7.20;;;1.70;;
23634;SDS011;11994;51.038;16.974;2023-02-01T01:42:51;7.10;;;2.10;;
23634;SDS011;11994;51.038;16.974;2023-02-01T01:47:57;6.00;;;1.90;;
23634;SDS011;11994;51.038;16.974;2023-02-01T01:50:59;6.50;;;2.20;;
23634;SDS011;11994;51.038;16.974;2023-02-01T01:53:20;9.60;;;2.00;;
23634;SDS011;11994;51.038;16.974;2023-02-01T01:55:50;8.60;;;2.40;;
23634;SDS011;11994;51.038;16.974;2023-02-01T01:58:18;9.30;;;3.20;;
23634;SDS011;11994;51.038;16.974;2023-02-01T02:00:46;9.50;;;2.80;;
23634;SDS011;11994;51.038;16.974;2023-02-01T02:03:19;7.70;;;2.00;;
23634;SDS011;11994;51.038;16.974;2023-02-01T02:05:48;8.10;;;2.20;;
23634;SDS011;11994;51.038;16.974;2023-02-01T02:08:15;7.40;;;2.30;;
23634;SDS011;11994;51.038;16.974;2023-02-01T02:10:43;7.30;;;2.00;;
23634;SDS011;11994;51.038;16.974;2023-02-01T02:13:37;9.80;;;2.60;;
23634;SDS011;11994;51.038;16.974;2023-02-01T02:16:18;9.70;;;2.40;;
23634;SDS011;11994;51.038;16.974;2023-02-01T02:24:23;6.90;;;2.00;;
23634;SDS011;11994;51.038;16.974;2023-02-01T02:38:02;8.70;;;2.70;;
23634;SDS011;11994;51.038;16.974;2023-02-01T02:44:03;9.50;;;2.70;;
23634;SDS011;11994;51.038;16.974;2023-02-01T02:46:59;14.00;;;2.70;;
23634;SDS011;11994;51.038;16.974;2023-02-01T02:49:49;11.70;;;3.10;;
23634;SDS011;11994;51.038;16.974;2023-02-01T02:52:42;12.00;;;3.10;;
23634;SDS011;11994;51.038;16.974;2023-02-01T02:55:42;10.70;;;2.50;;
23634;SDS011;11994;51.038;16.974;2023-02-01T02:58:09;12.80;;;2.80;;
23634;SDS011;11994;51.038;16.974;2023-02-01T03:00:56;15.50;;;3.20;;
23634;SDS011;11994;51.038;16.974;2023-02-01T03:03:41;11.50;;;2.70;;
23634;SDS011;11994;51.038;16.974;2023-02-01T03:06:26;12.50;;;3.10;;
23634;SDS011;11994;51.038;16.974;2023-02-01T03:08:53;10.70;;;2.30;;
23634;SDS011;11994;51.038;16.974;2023-02-01T03:11:22;12.20;;;2.90;;
23634;SDS011;11994;51.038;16.974;2023-02-01T03:13:53;10.70;;;2.60;;
23634;SDS011;11994;51.038;16.974;2023-02-01T03:16:25;12.00;;;2.80;;
23634;SDS011;11994;51.038;16.974;2023-02-01T03:19:02;13.50;;;3.10;;
23634;SDS011;11994;51.038;16.974;2023-02-01T03:22:07;12.20;;;3.10;;
23634;SDS011;11994;51.038;16.974;2023-02-01T03:24:37;10.40;;;2.50;;
23634;SDS011;11994;51.038;16.974;2023-02-01T03:27:18;8.20;;;2.50;;
23634;SDS011;11994;51.038;16.974;2023-02-01T03:29:45;12.90;;;2.90;;
23634;SDS011;11994;51.038;16.974;2023-02-01T03:32:15;12.50;;;2.60;;
23634;SDS011;11994;51.038;16.974;2023-02-01T03:34:41;12.00;;;2.80;;
23634;SDS011;11994;51.038;16.974;2023-02-01T03:37:11;12.40;;;2.90;;
23634;SDS011;11994;51.038;16.974;2023-02-01T03:42:24;15.20;;;2.80;;
23634;SDS011;11994;51.038;16.974;2023-02-01T03:45:13;10.30;;;2.90;;
23634;SDS011;11994;51.038;16.974;2023-02-01T03:47:46;9.00;;;2.90;;
23634;SDS011;11994;51.038;16.974;2023-02-01T03:50:18;13.00;;;3.00;;
23634;SDS011;11994;51.038;16.974;2023-02-01T03:52:52;12.10;;;2.80;;
23634;SDS011;11994;51.038;16.974;2023-02-01T03:55:22;10.10;;;2.60;;
23634;SDS011;11994;51.038;16.974;2023-02-01T04:00:54;11.10;;;2.70;;
23634;SDS011;11994;51.038;16.974;2023-02-01T04:03:24;11.90;;;2.80;;
23634;SDS011;11994;51.038;16.974;2023-02-01T04:05:50;10.80;;;2.80;;
23634;SDS011;11994;51.038;16.974;2023-02-01T04:08:17;13.00;;;2.90;;
23634;SDS011;11994;51.038;16.974;2023-02-01T04:10:43;8.80;;;2.30;;
23634;SDS011;11994;51.038;16.974;2023-02-01T04:13:09;12.50;;;2.90;;
23634;SDS011;11994;51.038;16.974;2023-02-01T04:15:34;12.60;;;3.30;;
23634;SDS011;11994;51.038;16.974;2023-02-01T04:18:00;11.70;;;3.10;;
23634;SDS011;11994;51.038;16.974;2023-02-01T04:20:26;10.30;;;2.90;;
23634;SDS011;11994;51.038;16.974;2023-02-01T04:22:51;10.90;;;3.60;;
23634;SDS011;11994;51.038;16.974;2023-02-01T04:25:17;14.80;;;5.30;;
23634;SDS011;11994;51.038;16.974;2023-02-01T04:27:42;14.60;;;5.30;;
23634;SDS011;11994;51.038;16.974;2023-02-01T04:30:08;19.10;;;5.70;;
23634;SDS011;11994;51.038;16.974;2023-02-01T04:32:37;21.70;;;6.30;;
23634;SDS011;11994;51.038;16.974;2023-02-01T04:35:03;17.20;;;5.80;;
23634;SDS011;11994;51.038;16.974;2023-02-01T04:37:29;21.30;;;5.30;;
23634;SDS011;11994;51.038;16.974;2023-02-01T04:39:54;20.40;;;5.40;;
23634;SDS011;11994;51.038;16.974;2023-02-01T04:42:20;23.10;;;6.10;;
23634;SDS011;11994;51.038;16.974;2023-02-01T04:44:45;22.10;;;6.50;;
23634;SDS011;11994;51.038;16.974;2023-02-01T04:47:10;19.30;;;5.60;;
23634;SDS011;11994;51.038;16.974;2023-02-01T04:49:36;15.50;;;4.30;;
23634;SDS011;11994;51.038;16.974;2023-02-01T04:52:02;19.70;;;5.40;;
23634;SDS011;11994;51.038;16.974;2023-02-01T04:54:27;18.80;;;5.40;;
23634;SDS011;11994;51.038;16.974;2023-02-01T04:56:52;18.10;;;5.00;;
23634;SDS011;11994;51.038;16.974;2023-02-01T04:59:18;22.10;;;5.30;;
23634;SDS011;11994;51.038;16.974;2023-02-01T05:01:43;17.50;;;5.10;;
23634;SDS011;11994;51.038;16.974;2023-02-01T05:04:08;14.60;;;3.70;;
23634;SDS011;11994;51.038;16.974;2023-02-01T05:06:34;14.60;;;4.50;;
23634;SDS011;11994;51.038;16.974;2023-02-01T05:08:59;14.90;;;4.10;;
23634;SDS011;11994;51.038;16.974;2023-02-01T05:11:25;17.20;;;3.80;;
23634;SDS011;11994;51.038;16.974;2023-02-01T05:14:08;14.00;;;4.20;;
23634;SDS011;11994;51.038;16.974;2023-02-01T05:16:34;21.80;;;5.10;;
23634;SDS011;11994;51.038;16.974;2023-02-01T05:18:59;13.60;;;3.40;;
23634;SDS011;11994;51.038;16.974;2023-02-01T05:21:25;15.90;;;3.80;;
23634;SDS011;11994;51.038;16.974;2023-02-01T05:23:50;12.90;;;3.80;;
23634;SDS011;11994;51.038;16.974;2023-02-01T05:26:34;10.30;;;3.40;;
23634;SDS011;11994;51.038;16.974;2023-02-01T05:28:59;12.30;;;3.10;;
23634;SDS011;11994;51.038;16.974;2023-02-01T05:31:24;8.40;;;2.90;;
23634;SDS011;11994;51.038;16.974;2023-02-01T05:33:50;13.90;;;3.50;;
23634;SDS011;11994;51.038;16.974;2023-02-01T05:36:16;10.40;;;2.90;;
23634;SDS011;11994;51.038;16.974;2023-02-01T05:38:41;11.50;;;2.80;;
23634;SDS011;11994;51.038;16.974;2023-02-01T05:41:07;10.90;;;2.60;;
23634;SDS011;11994;51.038;16.974;2023-02-01T05:43:33;9.30;;;3.20;;
23634;SDS011;11994;51.038;16.974;2023-02-01T05:45:58;13.60;;;2.40;;
23634;SDS011;11994;51.038;16.974;2023-02-01T05:48:24;11.20;;;2.60;;
23634;SDS011;11994;51.038;16.974;2023-02-01T05:50:49;11.50;;;2.90;;
23634;SDS011;11994;51.038;16.974;2023-02-01T05:53:14;15.30;;;3.20;;
23634;SDS011;11994;51.038;16.974;2023-02-01T05:55:40;11.50;;;2.70;;
23634;SDS011;11994;51.038;16.974;2023-02-01T05:58:06;14.00;;;2.60;;
23634;SDS011;11994;51.038;16.974;2023-02-01T06:00:32;13.50;;;2.90;;
23634;SDS011;11994;51.038;16.974;2023-02-01T06:02:57;10.60;;;2.60;;
23634;SDS011;11994;51.038;16.974;2023-02-01T06:05:23;13.00;;;2.90;;
23634;SDS011;11994;51.038;16.974;2023-02-01T06:07:48;15.00;;;3.20;;
23634;SDS011;11994;51.038;16.974;2023-02-01T06:10:15;12.10;;;3.10;;
23634;SDS011;11994;51.038;16.974;2023-02-01T06:12:41;11.10;;;3.20;;
23634;SDS011;11994;51.038;16.974;2023-02-01T06:15:06;10.20;;;2.80;;
23634;SDS011;11994;51.038;16.974;2023-02-01T06:17:32;11.60;;;3.80;;
23634;SDS011;11994;51.038;16.974;2023-02-01T06:19:58;13.60;;;3.40;;
23634;SDS011;11994;51.038;16.974;2023-02-01T06:22:23;17.80;;;3.90;;
23634;SDS011;11994;51.038;16.974;2023-02-01T06:24:48;11.80;;;3.40;;
23634;SDS011;11994;51.038;16.974;2023-02-01T06:27:14;13.20;;;3.40;;
23634;SDS011;11994;51.038;16.974;2023-02-01T06:29:40;14.80;;;2.90;;
23634;SDS011;11994;51.038;16.974;2023-02-01T06:32:06;14.20;;;3.50;;
23634;SDS011;11994;51.038;16.974;2023-02-01T06:34:31;11.10;;;2.90;;
23634;SDS011;11994;51.038;16.974;2023-02-01T06:36:57;11.90;;;3.40;;
23634;SDS011;11994;51.038;16.974;2023-02-01T06:39:22;11.20;;;3.20;;
23634;SDS011;11994;51.038;16.974;2023-02-01T06:41:48;11.90;;;3.10;;
23634;SDS011;11994;51.038;16.974;2023-02-01T06:44:14;10.40;;;3.30;;
23634;SDS011;11994;51.038;16.974;2023-02-01T06:46:39;12.80;;;3.40;;
23634;SDS011;11994;51.038;16.974;2023-02-01T06:49:05;11.10;;;3.40;;
23634;SDS011;11994;51.038;16.974;2023-02-01T06:51:30;10.60;;;3.20;;
23634;SDS011;11994;51.038;16.974;2023-02-01T06:53:56;13.40;;;3.30;;
23634;SDS011;11994;51.038;16.974;2023-02-01T06:56:22;14.20;;;3.80;;
23634;SDS011;11994;51.038;16.974;2023-02-01T06:58:48;12.90;;;3.60;;
23634;SDS011;11994;51.038;16.974;2023-02-01T07:01:14;12.40;;;3.20;;
23634;SDS011;11994;51.038;16.974;2023-02-01T07:03:40;15.80;;;3.50;;
23634;SDS011;11994;51.038;16.974;2023-02-01T07:06:06;12.70;;;3.50;;
23634;SDS011;11994;51.038;16.974;2023-02-01T07:08:32;10.30;;;3.10;;
23634;SDS011;11994;51.038;16.974;2023-02-01T07:11:07;14.50;;;3.60;;
23634;SDS011;11994;51.038;16.974;2023-02-01T07:13:35;13.70;;;3.50;;
23634;SDS011;11994;51.038;16.974;2023-02-01T07:16:01;12.00;;;3.40;;
23634;SDS011;11994;51.038;16.974;2023-02-01T07:18:29;12.80;;;3.70;;
23634;SDS011;11994;51.038;16.974;2023-02-01T07:20:55;17.10;;;6.50;;
23634;SDS011;11994;51.038;16.974;2023-02-01T07:23:21;17.40;;;5.50;;
23634;SDS011;11994;51.038;16.974;2023-02-01T07:25:47;13.80;;;3.70;;
23634;SDS011;11994;51.038;16.974;2023-02-01T07:28:12;21.10;;;8.90;;
23634;SDS011;11994;51.038;16.974;2023-02-01T07:30:37;18.70;;;7.60;;
23634;SDS011;11994;51.038;16.974;2023-02-01T07:33:03;16.10;;;4.60;;
23634;SDS011;11994;51.038;16.974;2023-02-01T07:35:28;13.40;;;3.90;;
23634;SDS011;11994;51.038;16.974;2023-02-01T07:37:54;14.30;;;5.00;;
23634;SDS011;11994;51.038;16.974;2023-02-01T07:40:19;13.20;;;4.00;;
23634;SDS011;11994;51.038;16.974;2023-02-01T07:42:50;16.30;;;4.10;;
23634;SDS011;11994;51.038;16.974;2023-02-01T07:45:15;11.40;;;3.50;;
23634;SDS011;11994;51.038;16.974;2023-02-01T07:47:41;12.40;;;3.20;;
23634;SDS011;11994;51.038;16.974;2023-02-01T07:50:06;14.00;;;3.50;;
23634;SDS011;11994;51.038;16.974;2023-02-01T07:52:32;9.80;;;3.70;;
23634;SDS011;11994;51.038;16.974;2023-02-01T07:54:57;10.70;;;3.50;;
23634;SDS011;11994;51.038;16.974;2023-02-01T07:57:23;9.60;;;3.20;;
23634;SDS011;11994;51.038;16.974;2023-02-01T07:59:48;15.10;;;3.90;;
23634;SDS011;11994;51.038;16.974;2023-02-01T08:02:32;17.90;;;4.70;;
23634;SDS011;11994;51.038;16.974;2023-02-01T08:04:57;12.40;;;3.30;;
23634;SDS011;11994;51.038;16.974;2023-02-01T08:07:23;10.60;;;3.80;;
23634;SDS011;11994;51.038;16.974;2023-02-01T08:09:48;14.20;;;2.90;;
23634;SDS011;11994;51.038;16.974;2023-02-01T08:12:13;9.70;;;2.70;;
23634;SDS011;11994;51.038;16.974;2023-02-01T08:14:39;15.80;;;3.60;;
23634;SDS011;11994;51.038;16.974;2023-02-01T08:17:05;15.00;;;3.20;;
23634;SDS011;11994;51.038;16.974;2023-02-01T08:19:31;12.80;;;3.60;;
23634;SDS011;11994;51.038;16.974;2023-02-01T08:21:56;13.10;;;3.90;;
23634;SDS011;11994;51.038;16.974;2023-02-01T08:24:22;16.20;;;4.40;;
23634;SDS011;11994;51.038;16.974;2023-02-01T08:26:47;13.60;;;4.10;;
23634;SDS011;11994;51.038;16.974;2023-02-01T08:29:13;13.60;;;4.10;;
23634;SDS011;11994;51.038;16.974;2023-02-01T08:31:39;11.00;;;3.50;;
23634;SDS011;11994;51.038;16.974;2023-02-01T08:34:08;15.70;;;3.60;;
23634;SDS011;11994;51.038;16.974;2023-02-01T08:36:34;11.10;;;3.80;;
23634;SDS011;11994;51.038;16.974;2023-02-01T08:39:00;12.50;;;3.70;;
23634;SDS011;11994;51.038;16.974;2023-02-01T08:41:27;12.70;;;4.00;;
23634;SDS011;11994;51.038;16.974;2023-02-01T08:43:54;13.30;;;4.00;;
23634;SDS011;11994;51.038;16.974;2023-02-01T08:46:21;13.10;;;4.20;;
23634;SDS011;11994;51.038;16.974;2023-02-01T08:48:47;13.80;;;3.90;;
23634;SDS011;11994;51.038;16.974;2023-02-01T08:51:14;10.90;;;3.90;;
23634;SDS011;11994;51.038;16.974;2023-02-01T08:53:41;12.00;;;3.50;;
23634;SDS011;11994;51.038;16.974;2023-02-01T08:56:07;11.60;;;4.00;;
23634;SDS011;11994;51.038;16.974;2023-02-01T08:58:33;11.30;;;3.80;;
23634;SDS011;11994;51.038;16.974;2023-02-01T09:01:17;12.00;;;3.50;;
23634;SDS011;11994;51.038;16.974;2023-02-01T09:03:42;11.10;;;3.20;;
23634;SDS011;11994;51.038;16.974;2023-02-01T09:06:09;15.20;;;3.90;;
23634;SDS011;11994;51.038;16.974;2023-02-01T09:08:37;11.90;;;3.70;;
23634;SDS011;11994;51.038;16.974;2023-02-01T09:11:04;13.00;;;4.10;;
23634;SDS011;11994;51.038;16.974;2023-02-01T09:13:36;11.40;;;3.60;;
23634;SDS011;11994;51.038;16.974;2023-02-01T09:16:02;11.80;;;4.10;;
23634;SDS011;11994;51.038;16.974;2023-02-01T09:18:29;11.50;;;4.10;;
23634;SDS011;11994;51.038;16.974;2023-02-01T09:20:54;10.90;;;4.40;;
23634;SDS011;11994;51.038;16.974;2023-02-01T09:23:20;11.20;;;3.70;;
23634;SDS011;11994;51.038;16.974;2023-02-01T09:25:45;11.20;;;4.10;;
23634;SDS011;11994;51.038;16.974;2023-02-01T09:28:11;10.90;;;3.90;;
23634;SDS011;11994;51.038;16.974;2023-02-01T09:30:36;9.90;;;3.10;;
23634;SDS011;11994;51.038;16.974;2023-02-01T09:33:03;8.20;;;3.00;;
23634;SDS011;11994;51.038;16.974;2023-02-01T09:35:28;6.80;;;2.80;;
23634;SDS011;11994;51.038;16.974;2023-02-01T09:37:54;8.10;;;2.90;;
23634;SDS011;11994;51.038;16.974;2023-02-01T09:40:19;8.00;;;2.80;;
23634;SDS011;11994;51.038;16.974;2023-02-01T09:45:16;7.80;;;2.80;;
23634;SDS011;11994;51.038;16.974;2023-02-01T09:47:46;8.10;;;2.80;;
23634;SDS011;11994;51.038;16.974;2023-02-01T09:50:18;9.10;;;3.40;;
23634;SDS011;11994;51.038;16.974;2023-02-01T09:57:58;6.70;;;2.50;;
23634;SDS011;11994;51.038;16.974;2023-02-01T10:00:33;8.60;;;2.90;;
23634;SDS011;11994;51.038;16.974;2023-02-01T10:03:01;6.30;;;2.70;;
23634;SDS011;11994;51.038;16.974;2023-02-01T10:08:32;8.10;;;3.10;;
23634;SDS011;11994;51.038;16.974;2023-02-01T10:14:29;8.00;;;2.80;;
23634;SDS011;11994;51.038;16.974;2023-02-01T10:22:46;8.70;;;2.90;;
23634;SDS011;11994;51.038;16.974;2023-02-01T10:25:23;10.80;;;3.70;;
23634;SDS011;11994;51.038;16.974;2023-02-01T10:27:53;8.60;;;3.00;;
23634;SDS011;11994;51.038;16.974;2023-02-01T10:30:21;9.60;;;3.80;;
23634;SDS011;11994;51.038;16.974;2023-02-01T10:35:52;12.00;;;3.40;;
23634;SDS011;11994;51.038;16.974;2023-02-01T10:38:27;10.30;;;3.00;;
23634;SDS011;11994;51.038;16.974;2023-02-01T10:40:55;12.00;;;3.40;;
23634;SDS011;11994;51.038;16.974;2023-02-01T10:43:26;11.50;;;3.40;;
23634;SDS011;11994;51.038;16.974;2023-02-01T10:45:51;9.80;;;3.60;;
23634;SDS011;11994;51.038;16.974;2023-02-01T10:48:16;10.90;;;3.30;;
23634;SDS011;11994;51.038;16.974;2023-02-01T10:50:53;9.80;;;4.50;;
23634;SDS011;11994;51.038;16.974;2023-02-01T10:53:38;11.60;;;4.50;;
23634;SDS011;11994;51.038;16.974;2023-02-01T10:56:24;9.60;;;4.00;;
23634;SDS011;11994;51.038;16.974;2023-02-01T11:01:28;12.10;;;3.80;;
23634;SDS011;11994;51.038;16.974;2023-02-01T11:04:05;7.60;;;2.60;;
23634;SDS011;11994;51.038;16.974;2023-02-01T11:06:39;7.70;;;2.50;;
23634;SDS011;11994;51.038;16.974;2023-02-01T11:14:19;8.80;;;4.00;;
23634;SDS011;11994;51.038;16.974;2023-02-01T11:16:58;9.70;;;3.80;;
23634;SDS011;11994;51.038;16.974;2023-02-01T11:19:25;9.10;;;3.20;;
23634;SDS011;11994;51.038;16.974;2023-02-01T11:21:51;5.80;;;2.80;;
23634;SDS011;11994;51.038;16.974;2023-02-01T11:26:54;5.90;;;2.60;;
23634;SDS011;11994;51.038;16.974;2023-02-01T11:29:21;7.80;;;2.80;;
23634;SDS011;11994;51.038;16.974;2023-02-01T11:31:54;8.40;;;4.20;;
23634;SDS011;11994;51.038;16.974;2023-02-01T11:34:25;4.50;;;2.00;;
23634;SDS011;11994;51.038;16.974;2023-02-01T11:39:27;5.90;;;2.50;;
23634;SDS011;11994;51.038;16.974;2023-02-01T11:42:11;5.10;;;2.30;;
23634;SDS011;11994;51.038;16.974;2023-02-01T11:44:39;7.40;;;2.50;;
23634;SDS011;11994;51.038;16.974;2023-02-01T11:47:19;8.10;;;2.90;;
23634;SDS011;11994;51.038;16.974;2023-02-01T11:49:52;5.40;;;2.40;;
23634;SDS011;11994;51.038;16.974;2023-02-01T12:09:37;4.70;;;2.30;;
23634;SDS011;11994;51.038;16.974;2023-02-01T12:25:15;5.60;;;2.10;;
23634;SDS011;11994;51.038;16.974;2023-02-01T12:30:35;4.10;;;1.80;;
23634;SDS011;11994;51.038;16.974;2023-02-01T12:33:11;6.70;;;1.90;;
23634;SDS011;11994;51.038;16.974;2023-02-01T12:38:32;3.70;;;1.80;;
23634;SDS011;11994;51.038;16.974;2023-02-01T12:44:11;3.30;;;1.70;;
23634;SDS011;11994;51.038;16.974;2023-02-01T12:46:47;3.80;;;1.90;;
23634;SDS011;11994;51.038;16.974;2023-02-01T12:49:19;4.40;;;1.80;;
23634;SDS011;11994;51.038;16.974;2023-02-01T12:51:54;4.40;;;2.00;;
23634;SDS011;11994;51.038;16.974;2023-02-01T12:54:34;5.20;;;2.00;;
23634;SDS011;11994;51.038;16.974;2023-02-01T12:57:06;6.00;;;2.00;;
23634;SDS011;11994;51.038;16.974;2023-02-01T12:59:38;5.60;;;2.10;;
23634;SDS011;11994;51.038;16.974;2023-02-01T13:07:57;6.60;;;3.10;;
23634;SDS011;11994;51.038;16.974;2023-02-01T13:10:32;6.60;;;3.70;;
23634;SDS011;11994;51.038;16.974;2023-02-01T13:13:28;8.00;;;3.60;;
23634;SDS011;11994;51.038;16.974;2023-02-01T13:16:31;6.00;;;2.40;;
23634;SDS011;11994;51.038;16.974;2023-02-01T13:19:08;6.40;;;2.80;;
23634;SDS011;11994;51.038;16.974;2023-02-01T13:21:42;6.70;;;2.50;;
23634;SDS011;11994;51.038;16.974;2023-02-01T13:24:27;7.20;;;2.80;;
23634;SDS011;11994;51.038;16.974;2023-02-01T13:26:54;6.20;;;2.40;;
23634;SDS011;11994;51.038;16.974;2023-02-01T13:29:20;5.90;;;2.30;;
23634;SDS011;11994;51.038;16.974;2023-02-01T13:42:31;5.60;;;3.10;;
23634;SDS011;11994;51.038;16.974;2023-02-01T13:45:05;6.10;;;2.40;;
23634;SDS011;11994;51.038;16.974;2023-02-01T13:47:40;3.70;;;2.00;;
23634;SDS011;11994;51.038;16.974;2023-02-01T13:50:28;4.70;;;1.50;;
23634;SDS011;11994;51.038;16.974;2023-02-01T13:55:32;5.10;;;2.20;;
23634;SDS011;11994;51.038;16.974;2023-02-01T13:58:02;8.40;;;2.10;;
23634;SDS011;11994;51.038;16.974;2023-02-01T14:00:31;4.40;;;2.10;;
23634;SDS011;11994;51.038;16.974;2023-02-01T14:23:40;7.40;;;3.10;;
23634;SDS011;11994;51.038;16.974;2023-02-01T14:26:10;6.00;;;2.50;;
23634;SDS011;11994;51.038;16.974;2023-02-01T14:31:37;9.80;;;3.20;;
23634;SDS011;11994;51.038;16.974;2023-02-01T14:37:02;9.90;;;3.50;;
23634;SDS011;11994;51.038;16.974;2023-02-01T14:39:32;10.10;;;2.90;;
23634;SDS011;11994;51.038;16.974;2023-02-01T14:41:59;10.60;;;3.10;;
23634;SDS011;11994;51.038;16.974;2023-02-01T14:44:32;12.10;;;3.00;;
23634;SDS011;11994;51.038;16.974;2023-02-01T14:49:30;6.10;;;2.40;;
23634;SDS011;11994;51.038;16.974;2023-02-01T14:51:58;9.70;;;3.70;;
23634;SDS011;11994;51.038;16.974;2023-02-01T14:54:27;9.30;;;3.50;;
23634;SDS011;11994;51.038;16.974;2023-02-01T14:56:53;11.40;;;4.50;;
23634;SDS011;11994;51.038;16.974;2023-02-01T14:59:20;10.20;;;3.60;;
23634;SDS011;11994;51.038;16.974;2023-02-01T15:01:56;9.50;;;2.90;;
23634;SDS011;11994;51.038;16.974;2023-02-01T15:04:25;8.20;;;2.70;;
23634;SDS011;11994;51.038;16.974;2023-02-01T15:06:55;8.50;;;3.30;;
23634;SDS011;11994;51.038;16.974;2023-02-01T15:12:15;8.40;;;3.60;;
23634;SDS011;11994;51.038;16.974;2023-02-01T15:17:39;8.70;;;3.70;;
23634;SDS011;11994;51.038;16.974;2023-02-01T15:22:40;9.20;;;3.80;;
23634;SDS011;11994;51.038;16.974;2023-02-01T15:25:17;9.30;;;3.90;;
23634;SDS011;11994;51.038;16.974;2023-02-01T15:27:45;9.70;;;3.40;;
23634;SDS011;11994;51.038;16.974;2023-02-01T15:30:30;7.60;;;3.10;;
23634;SDS011;11994;51.038;16.974;2023-02-01T15:38:34;8.80;;;3.30;;
23634;SDS011;11994;51.038;16.974;2023-02-01T15:41:06;7.20;;;3.20;;
23634;SDS011;11994;51.038;16.974;2023-02-01T15:46:32;8.90;;;3.30;;
23634;SDS011;11994;51.038;16.974;2023-02-01T15:48:58;6.60;;;3.10;;
23634;SDS011;11994;51.038;16.974;2023-02-01T15:51:25;7.30;;;2.90;;
23634;SDS011;11994;51.038;16.974;2023-02-01T15:56:39;8.10;;;3.80;;
23634;SDS011;11994;51.038;16.974;2023-02-01T15:59:16;14.60;;;7.40;;
23634;SDS011;11994;51.038;16.974;2023-02-01T16:01:43;8.00;;;4.30;;
23634;SDS011;11994;51.038;16.974;2023-02-01T16:06:55;6.90;;;3.40;;
23634;SDS011;11994;51.038;16.974;2023-02-01T16:09:24;8.40;;;3.30;;
23634;SDS011;11994;51.038;16.974;2023-02-01T16:12:00;5.60;;;3.00;;
23634;SDS011;11994;51.038;16.974;2023-02-01T16:14:28;5.70;;;2.50;;
23634;SDS011;11994;51.038;16.974;2023-02-01T16:16:54;8.50;;;3.30;;
23634;SDS011;11994;51.038;16.974;2023-02-01T16:19:21;6.30;;;3.40;;
23634;SDS011;11994;51.038;16.974;2023-02-01T16:21:50;6.50;;;2.90;;
23634;SDS011;11994;51.038;16.974;2023-02-01T16:24:15;9.00;;;2.90;;
23634;SDS011;11994;51.038;16.974;2023-02-01T16:26:40;5.50;;;2.80;;
23634;SDS011;11994;51.038;16.974;2023-02-01T16:29:06;6.60;;;2.90;;
23634;SDS011;11994;51.038;16.974;2023-02-01T16:31:33;7.10;;;2.90;;
23634;SDS011;11994;51.038;16.974;2023-02-01T16:34:00;8.70;;;4.50;;
23634;SDS011;11994;51.038;16.974;2023-02-01T16:36:26;9.00;;;3.50;;
23634;SDS011;11994;51.038;16.974;2023-02-01T16:38:53;6.10;;;3.10;;
23634;SDS011;11994;51.038;16.974;2023-02-01T16:41:20;9.50;;;3.60;;
23634;SDS011;11994;51.038;16.974;2023-02-01T16:43:50;11.80;;;4.30;;
23634;SDS011;11994;51.038;16.974;2023-02-01T16:46:20;10.70;;;3.50;;
23634;SDS011;11994;51.038;16.974;2023-02-01T16:48:51;8.40;;;3.00;;
23634;SDS011;11994;51.038;16.974;2023-02-01T16:51:19;9.70;;;4.20;;
23634;SDS011;11994;51.038;16.974;2023-02-01T16:53:45;9.60;;;4.10;;
23634;SDS011;11994;51.038;16.974;2023-02-01T16:56:23;18.80;;;6.60;;
23634;SDS011;11994;51.038;16.974;2023-02-01T16:58:55;12.20;;;5.20;;
23634;SDS011;11994;51.038;16.974;2023-02-01T17:01:21;10.70;;;4.90;;
23634;SDS011;11994;51.038;16.974;2023-02-01T17:03:47;11.10;;;4.60;;
23634;SDS011;11994;51.038;16.974;2023-02-01T17:06:13;13.50;;;5.40;;
23634;SDS011;11994;51.038;16.974;2023-02-01T17:08:42;13.40;;;6.10;;
23634;SDS011;11994;51.038;16.974;2023-02-01T17:11:15;11.70;;;4.90;;
23634;SDS011;11994;51.038;16.974;2023-02-01T17:13:41;13.00;;;5.00;;
23634;SDS011;11994;51.038;16.974;2023-02-01T17:18:56;10.10;;;4.70;;
23634;SDS011;11994;51.038;16.974;2023-02-01T17:21:24;11.20;;;4.70;;
23634;SDS011;11994;51.038;16.974;2023-02-01T17:23:51;10.70;;;4.70;;
23634;SDS011;11994;51.038;16.974;2023-02-01T17:26:17;14.20;;;4.70;;
23634;SDS011;11994;51.038;16.974;2023-02-01T17:28:43;10.50;;;4.60;;
23634;SDS011;11994;51.038;16.974;2023-02-01T17:31:10;10.60;;;4.50;;
23634;SDS011;11994;51.038;16.974;2023-02-01T17:33:38;12.90;;;5.00;;
23634;SDS011;11994;51.038;16.974;2023-02-01T17:36:04;11.40;;;4.50;;
23634;SDS011;11994;51.038;16.974;2023-02-01T17:38:31;10.60;;;4.40;;
23634;SDS011;11994;51.038;16.974;2023-02-01T17:40:58;13.10;;;4.80;;